Time;durP1;ratioP1;P1;durP2;ratioP2;P2;SDS_P1;SDS_P2;PMS_P1;PMS_P2;Temp;Humidity;BMP_temperature;BMP_pressure;BME280_temperature;BME280_humidity;BME280_pressure;Samples;Min_cycle;Max_cycle;Signal;HPM_P1;HPM_P2
2022/02/12 00:00:07;;;;;;;;;27.75;25.75;;;;;7.36;58.55;102473.69;5054228;28;45590;-74
2022/02/12 00:02:33;;;;;;;;;27.25;25.25;;;;;7.64;58.60;102533.75;5051864;28;45784;-74
2022/02/12 00:04:58;;;;;;;;;29.00;27.25;;;;;7.18;58.58;102452.44;5054130;28;45691;-78
2022/02/12 00:07:24;;;;;;;;;31.75;26.25;;;;;7.52;58.60;102512.34;5053672;28;46554;-74
2022/02/12 00:09:53;;;;;;;;;35.00;29.75;;;;;7.57;58.53;102525.25;5052476;28;46001;-75
2022/02/12 00:12:18;;;;;;;;;32.25;28.25;;;;;7.53;58.80;102507.97;5051999;28;45985;-72
2022/02/12 00:14:44;;;;;;;;;24.25;24.00;;;;;7.55;58.63;102516.63;5052363;28;45666;-76
2022/02/12 00:17:11;;;;;;;;;33.25;30.00;;;;;7.50;58.72;102506.28;5050312;28;45761;-78
2022/02/12 00:19:36;;;;;;;;;30.50;26.50;;;;;7.52;58.78;102511.47;5056999;28;46172;-74
2022/02/12 00:22:02;;;;;;;;;30.75;27.00;;;;;7.47;58.62;102498.56;5058028;28;45560;-77
2022/02/12 00:27:50;;;;;;;;;30.50;28.25;;;;;7.46;58.77;102501.22;5060233;28;45525;-76
2022/02/12 00:30:17;;;;;;;;;29.25;27.75;;;;;7.46;58.85;102499.47;5040227;28;46584;-75
2022/02/12 00:32:42;;;;;;;;;35.25;30.50;;;;;7.43;58.57;102502.16;5056828;28;45884;-78
2022/02/12 00:35:08;;;;;;;;;27.00;26.50;;;;;7.44;58.70;102503.88;5039346;28;45886;-77
2022/02/12 00:37:33;;;;;;;;;26.25;24.25;;;;;7.42;58.78;102510.03;5072444;28;47320;-76
2022/02/12 00:43:21;;;;;;;;;24.00;23.25;;;;;7.38;58.92;102487.53;5057235;28;45651;-78
2022/02/12 00:45:54;;;;;;;;;24.00;19.25;;;;;7.33;58.46;102489.44;5056957;28;45502;-77
2022/02/12 00:48:20;;;;;;;;;23.25;19.25;;;;;7.38;58.82;102491.00;5055800;28;46635;-78
2022/02/12 00:50:45;;;;;;;;;25.00;19.25;;;;;7.20;58.83;102460.22;5056707;28;45689;-76
2022/02/12 00:53:13;;;;;;;;;22.00;20.50;;;;;7.38;58.86;102487.53;5056627;28;45573;-76
2022/02/12 00:55:39;;;;;;;;;22.00;21.00;;;;;7.37;58.96;102494.50;5056921;28;45710;-77
2022/02/12 00:58:04;;;;;;;;;18.00;17.25;;;;;7.30;58.57;102490.34;5056442;28;47291;-77
2022/02/12 01:00:30;;;;;;;;;20.50;17.25;;;;;7.33;58.80;102499.84;5056402;28;46386;-78
2022/02/12 01:02:55;;;;;;;;;21.50;20.75;;;;;7.31;58.72;102486.00;5056767;28;45562;-78
2022/02/12 01:05:20;;;;;;;;;19.75;18.00;;;;;7.24;58.93;102476.63;5056718;28;45653;-77
2022/02/12 01:07:46;;;;;;;;;18.75;17.00;;;;;7.18;58.83;102464.59;5056516;28;46258;-78
2022/02/12 01:13:33;;;;;;;;;19.25;18.00;;;;;7.14;58.82;102456.03;5057003;28;45776;-73
2022/02/12 01:15:58;;;;;;;;;18.75;18.00;;;;;7.13;58.91;102453.47;5056653;28;45635;-72
2022/02/12 01:18:24;;;;;;;;;18.25;17.25;;;;;7.12;58.69;102455.22;5056283;28;46304;-77
2022/02/12 01:20:49;;;;;;;;;21.00;18.50;;;;;7.13;58.74;102462.13;5056088;28;47164;-78
2022/02/12 01:23:15;;;;;;;;;18.25;17.25;;;;;7.12;58.71;102464.81;5056493;28;45637;-76
2022/02/12 01:25:44;;;;;;;;;18.00;16.75;;;;;7.07;58.72;102444.06;5057053;28;45515;-78
2022/02/12 01:28:17;;;;;;;;;16.25;16.00;;;;;7.03;58.79;102445.03;5055970;28;47406;-77
2022/02/12 01:30:44;;;;;;;;;22.25;16.75;;;;;7.09;58.87;102450.09;5056380;28;45740;-77
2022/02/12 01:33:10;;;;;;;;;17.75;15.00;;;;;7.08;58.62;102443.16;5060716;28;45588;-75
2022/02/12 01:35:35;;;;;;;;;20.25;17.00;;;;;7.08;59.09;102445.75;5057472;28;45528;-78
2022/02/12 01:38:01;;;;;;;;;18.00;16.50;;;;;7.07;58.59;102445.84;5057369;28;45550;-78
2022/02/12 01:43:48;;;;;;;;;17.00;16.00;;;;;7.07;58.61;102440.63;5056515;28;45938;-79
2022/02/12 01:46:13;;;;;;;;;14.25;13.25;;;;;7.09;58.82;102441.41;5058166;28;45759;-76
2022/02/12 01:48:42;;;;;;;;;17.00;13.75;;;;;7.02;58.83;102430.28;5059869;28;45756;-77
2022/02/12 01:51:08;;;;;;;;;21.25;18.25;;;;;7.12;58.92;102444.81;5060403;28;46331;-78
2022/02/12 01:53:35;;;;;;;;;14.25;13.75;;;;;7.12;58.85;102437.00;5059803;28;45666;-75
2022/02/12 01:56:00;;;;;;;;;17.25;17.00;;;;;7.10;59.06;102428.34;5062116;28;45812;-78
2022/02/12 01:58:25;;;;;;;;;17.25;17.00;;;;;7.13;58.70;102425.66;5057682;28;46364;-77
2022/02/12 02:00:51;;;;;;;;;17.00;16.00;;;;;7.14;58.82;102418.69;5057684;28;46014;-78
2022/02/12 02:03:17;;;;;;;;;17.50;14.50;;;;;7.13;58.74;102416.97;5061010;28;45559;-76
2022/02/12 02:05:42;;;;;;;;;23.00;15.75;;;;;7.11;58.71;102417.03;5050382;28;45915;-77
2022/02/12 02:08:07;;;;;;;;;21.00;18.00;;;;;7.08;58.90;102411.88;5074144;28;45483;-76
2022/02/12 02:13:55;;;;;;;;;15.50;14.75;;;;;7.07;58.93;102396.31;5077818;28;45618;-77
2022/02/12 02:16:20;;;;;;;;;17.25;15.75;;;;;7.07;58.77;102389.31;5077227;28;45200;-75
2022/02/12 02:18:46;;;;;;;;;20.50;17.50;;;;;7.06;58.99;102398.06;5076994;28;45576;-75
2022/02/12 02:21:11;;;;;;;;;20.00;17.00;;;;;7.01;58.93;102383.47;5075024;28;45564;-80
2022/02/12 02:23:38;;;;;;;;;23.00;18.75;;;;;7.03;58.73;102386.84;5058674;28;46098;-75
2022/02/12 02:26:04;;;;;;;;;18.50;17.75;;;;;7.03;58.74;102389.47;5057691;28;45511;-77
2022/02/12 02:28:30;;;;;;;;;18.00;15.50;;;;;7.00;58.75;102382.59;5041249;28;45572;-76
2022/02/12 02:30:56;;;;;;;;;18.00;15.75;;;;;6.98;58.74;102383.53;5058370;28;46047;-76
2022/02/12 02:33:22;;;;;;;;;22.75;21.00;;;;;6.90;58.59;102360.31;5055915;28;45692;-76
2022/02/12 02:35:48;;;;;;;;;21.00;20.00;;;;;6.95;58.68;102370.59;5057731;28;45546;-78
2022/02/12 02:38:15;;;;;;;;;20.75;19.50;;;;;6.95;58.94;102370.59;5060681;28;46495;-77
2022/02/12 02:44:02;;;;;;;;;27.25;23.25;;;;;6.85;58.79;102366.53;5055930;28;45668;-77
2022/02/12 02:46:28;;;;;;;;;24.00;21.00;;;;;6.79;58.86;102354.53;5054299;28;45936;-77
2022/02/12 02:48:53;;;;;;;;;20.75;18.00;;;;;6.84;59.07;102357.00;5055365;28;45615;-77
2022/02/12 02:56:46;;;;;;;;;24.75;22.50;;;;;6.76;58.70;102341.56;5054681;28;45562;-77
2022/02/12 02:59:11;;;;;;;;;24.75;21.75;;;;;6.71;59.42;102328.69;5054553;28;46425;-77
2022/02/12 03:01:37;;;;;;;;;27.75;24.25;;;;;6.75;59.06;102330.31;5054463;28;46888;-79
2022/02/12 03:04:04;;;;;;;;;20.00;19.75;;;;;6.61;59.08;102314.22;5054668;28;46383;-78
2022/02/12 03:06:30;;;;;;;;;22.75;18.00;;;;;6.70;59.32;102320.91;5054841;28;45568;-78
2022/02/12 03:08:57;;;;;;;;;27.25;24.75;;;;;6.74;58.99;102326.00;5054903;28;45682;-76
2022/02/12 03:11:23;;;;;;;;;27.75;22.50;;;;;6.71;59.08;102310.44;5054558;28;45998;-77
2022/02/12 03:13:51;;;;;;;;;27.00;23.50;;;;;6.70;59.07;102302.69;5054436;28;45978;-78
2022/02/12 03:16:17;;;;;;;;;23.00;21.00;;;;;6.72;59.29;102312.16;5052975;28;45555;-77
2022/02/12 03:18:46;;;;;;;;;24.00;21.00;;;;;6.71;59.31;102312.19;5036440;28;45663;-76
2022/02/12 03:21:12;;;;;;;;;26.25;22.75;;;;;6.63;59.24;102296.81;5054385;28;45759;-74
2022/02/12 03:23:38;;;;;;;;;22.50;20.50;;;;;6.66;59.25;102298.47;5054519;28;45679;-74
2022/02/12 03:29:25;;;;;;;;;23.75;22.75;;;;;6.51;59.45;102283.25;5053958;28;45644;-73
2022/02/12 03:31:51;;;;;;;;;20.75;20.00;;;;;6.52;59.15;102293.63;5051842;28;48426;-73
2022/02/12 03:34:16;;;;;;;;;20.50;19.00;;;;;6.49;59.25;102293.72;5054333;28;45524;-72
2022/02/12 03:36:42;;;;;;;;;22.00;20.00;;;;;6.45;59.74;102281.69;5054350;28;45868;-74
2022/02/12 03:39:07;;;;;;;;;21.25;19.75;;;;;6.45;59.49;102284.28;5054324;28;45651;-74
2022/02/12 03:41:33;;;;;;;;;22.00;17.25;;;;;6.43;59.07;102291.25;5054216;28;46191;-73
2022/02/12 03:43:58;;;;;;;;;17.00;14.75;;;;;6.42;59.60;102286.97;5053639;28;45615;-73
2022/02/12 03:46:24;;;;;;;;;18.75;16.25;;;;;6.38;59.80;102276.66;5054048;28;45634;-74
2022/02/12 03:48:57;;;;;;;;;23.50;17.75;;;;;6.37;59.20;102278.41;5054046;28;45526;-77
2022/02/12 03:51:22;;;;;;;;;19.25;18.75;;;;;6.36;59.66;102281.94;5055620;28;45763;-74
2022/02/12 03:53:49;;;;;;;;;18.75;16.50;;;;;6.36;59.51;102270.66;5059273;28;45745;-76
2022/02/12 03:59:36;;;;;;;;;15.50;12.25;;;;;6.29;59.63;102262.16;5058120;28;45563;-76
2022/02/12 04:02:03;;;;;;;;;21.00;16.75;;;;;6.24;59.49;102245.81;5057637;28;45995;-77
2022/02/12 04:04:28;;;;;;;;;16.50;16.25;;;;;6.25;59.63;102251.00;5057243;28;45557;-77
2022/02/12 04:06:54;;;;;;;;;19.00;16.25;;;;;6.24;59.81;102245.81;5056959;28;45439;-73
2022/02/12 04:09:19;;;;;;;;;16.25;14.25;;;;;6.17;59.89;102239.06;5057224;28;45522;-77
2022/02/12 04:11:48;;;;;;;;;20.50;17.75;;;;;6.21;59.64;102251.09;5057469;28;45575;-76
2022/02/12 04:14:13;;;;;;;;;13.00;13.00;;;;;6.17;59.46;102239.91;5057481;28;45920;-77
2022/02/12 04:16:39;;;;;;;;;20.25;16.50;;;;;6.20;59.64;102242.44;5057467;28;45564;-76
2022/02/12 04:19:04;;;;;;;;;17.00;16.50;;;;;6.20;59.79;102233.78;5056998;28;46261;-77
2022/02/12 04:21:29;;;;;;;;;19.75;17.25;;;;;6.18;59.81;102238.16;5056819;28;47026;-77
2022/02/12 04:23:55;;;;;;;;;21.50;17.75;;;;;6.17;59.96;102245.13;5057143;28;45930;-74
2022/02/12 04:29:42;;;;;;;;;14.50;14.50;;;;;6.06;60.11;102223.72;5056795;28;45607;-76
2022/02/12 04:32:08;;;;;;;;;18.25;17.25;;;;;6.08;59.52;102228.91;5056786;28;46031;-73
2022/02/12 04:34:33;;;;;;;;;17.25;16.00;;;;;6.07;59.99;102224.59;5056794;28;45503;-73
2022/02/12 04:36:58;;;;;;;;;25.50;19.75;;;;;6.05;59.94;102224.63;5057209;28;45630;-74
2022/02/12 04:39:24;;;;;;;;;18.25;17.75;;;;;6.02;60.00;102213.47;5056854;28;45670;-74
2022/02/12 04:45:11;;;;;;;;;17.00;15.00;;;;;5.87;60.15;102201.72;5056478;28;45535;-75
2022/02/12 04:47:37;;;;;;;;;18.75;17.00;;;;;5.97;59.76;102218.78;5056955;28;45570;-74
2022/02/12 04:50:04;;;;;;;;;22.75;17.25;;;;;5.99;60.20;102223.94;5049244;28;45792;-75
2022/02/12 04:52:30;;;;;;;;;22.50;19.00;;;;;5.95;60.03;102224.91;5036522;28;45747;-74
2022/02/12 04:54:56;;;;;;;;;23.00;20.75;;;;;5.93;60.10;102222.38;5035202;28;45678;-74
2022/02/12 04:57:21;;;;;;;;;25.00;21.25;;;;;5.87;60.46;102210.38;5036538;28;45906;-73
2022/02/12 04:59:47;;;;;;;;;16.00;15.50;;;;;5.95;59.97;102223.16;5036022;28;47239;-74
2022/02/12 05:02:12;;;;;;;;;19.00;16.50;;;;;5.86;59.88;102208.63;5035880;28;46133;-73
2022/02/12 05:04:45;;;;;;;;;20.00;16.00;;;;;5.90;60.03;102209.41;5036123;28;46011;-76
2022/02/12 05:07:11;;;;;;;;;19.00;17.25;;;;;5.94;60.00;102216.25;5034703;28;45836;-73
2022/02/12 05:09:38;;;;;;;;;34.00;27.00;;;;;5.95;60.19;102217.97;5034746;28;46977;-75
2022/02/12 05:12:05;;;;;;;;;33.75;28.75;;;;;5.95;59.97;102204.09;5035862;28;46086;-74
2022/02/12 05:14:31;;;;;;;;;28.50;25.75;;;;;5.93;60.34;102198.97;5036135;28;45591;-73
2022/02/12 05:16:58;;;;;;;;;22.00;18.00;;;;;5.96;60.03;102200.59;5036101;28;45694;-74
2022/02/12 05:19:24;;;;;;;;;21.25;19.00;;;;;5.90;59.83;102196.41;5036172;28;46002;-74
2022/02/12 05:21:49;;;;;;;;;14.50;12.50;;;;;5.93;60.09;102204.16;5035389;28;47354;-76
2022/02/12 05:24:15;;;;;;;;;15.50;13.00;;;;;5.93;60.46;102203.31;5034332;28;45591;-73
2022/02/12 05:30:03;;;;;;;;;12.00;11.00;;;;;5.85;60.22;102198.25;5035796;28;45558;-73
2022/02/12 05:32:28;;;;;;;;;12.00;11.00;;;;;5.87;60.25;102196.50;5034564;28;47503;-74
2022/02/12 05:34:54;;;;;;;;;10.50;9.25;;;;;5.81;60.50;102189.69;5035792;28;45615;-76
2022/02/12 05:37:19;;;;;;;;;15.00;12.00;;;;;5.85;60.01;102190.44;5034881;28;45780;-73
2022/02/12 05:39:44;;;;;;;;;14.00;12.50;;;;;5.84;60.20;102184.41;5035726;28;45570;-75
2022/02/12 05:45:37;;;;;;;;;41.75;33.25;;;;;5.65;60.27;102146.78;5035173;28;45567;-75
2022/02/12 05:48:13;;;;;;;;;22.75;19.75;;;;;5.84;60.37;102181.78;5035773;28;45670;-77
2022/02/12 05:50:38;;;;;;;;;11.75;9.50;;;;;5.83;59.95;102168.84;5042296;28;45677;-75
2022/02/12 05:53:04;;;;;;;;;12.25;9.00;;;;;5.83;60.27;102158.44;5055883;28;45986;-79
2022/02/12 05:55:30;;;;;;;;;17.50;15.25;;;;;5.77;60.55;102153.41;5055962;28;45488;-77
2022/02/12 05:57:58;;;;;;;;;16.00;15.00;;;;;5.73;60.56;102146.56;5055720;28;45800;-76
2022/02/12 06:00:27;;;;;;;;;31.00;28.50;;;;;5.74;60.48;102156.94;5056161;28;45683;-76
2022/02/12 06:03:01;;;;;;;;;12.25;11.25;;;;;5.63;60.29;102135.56;5056803;28;46882;-76
2022/02/12 06:05:32;;;;;;;;;13.50;11.00;;;;;5.29;60.57;102082.75;5057000;28;45793;-77
2022/02/12 06:08:01;;;;;;;;;14.50;11.25;;;;;5.54;60.67;102125.41;5056417;28;45744;-77
2022/02/12 06:10:27;;;;;;;;;12.00;11.25;;;;;5.43;60.49;102099.69;5037411;28;47943;-74
2022/02/12 06:12:55;;;;;;;;;12.25;8.50;;;;;5.73;60.22;102150.00;5055237;28;46417;-76
2022/02/12 06:15:21;;;;;;;;;26.75;23.00;;;;;5.73;60.47;102146.56;5053919;28;45962;-76
2022/02/12 06:17:46;;;;;;;;;24.75;20.50;;;;;5.72;60.35;102148.31;5055595;28;45570;-74
2022/02/12 06:20:13;;;;;;;;;17.50;12.50;;;;;5.71;60.47;102157.03;5055218;28;45739;-72
2022/02/12 06:22:38;;;;;;;;;14.50;12.00;;;;;5.72;60.34;102150.06;5055028;28;47507;-76
2022/02/12 06:25:05;;;;;;;;;11.50;11.00;;;;;5.67;60.19;102137.16;5054842;28;45683;-72
2022/02/12 06:30:52;;;;;;;;;9.00;8.75;;;;;5.68;60.49;102138.88;5054438;28;45519;-76
2022/02/12 06:33:18;;;;;;;;;12.50;10.00;;;;;5.66;60.70;102138.09;5054860;28;45601;-75
2022/02/12 06:35:44;;;;;;;;;10.50;8.00;;;;;5.65;60.65;102131.19;5055988;28;45628;-74
2022/02/12 06:38:10;;;;;;;;;8.50;8.00;;;;;5.63;60.29;102129.50;5056678;28;45732;-76
2022/02/12 06:40:36;;;;;;;;;7.25;7.25;;;;;5.62;60.38;102131.25;5057107;28;46696;-74
2022/02/12 06:43:03;;;;;;;;;11.25;8.00;;;;;5.61;60.56;102121.75;5055523;28;46328;-74
2022/02/12 06:45:29;;;;;;;;;20.50;19.00;;;;;5.55;60.76;102119.31;5054206;28;45511;-75
2022/02/12 06:47:58;;;;;;;;;12.50;11.50;;;;;5.55;60.77;102110.66;5037158;28;45511;-74
2022/02/12 06:50:23;;;;;;;;;9.25;9.00;;;;;5.59;60.66;102123.53;5054213;28;46596;-75
2022/02/12 06:52:51;;;;;;;;;11.75;10.00;;;;;5.56;60.57;102126.19;5055027;28;45815;-76
2022/02/12 06:55:18;;;;;;;;;13.50;10.00;;;;;5.56;60.87;102121.00;5054628;28;45663;-77
2022/02/12 07:01:05;;;;;;;;;10.50;9.50;;;;;5.51;60.64;102122.03;5054360;28;45591;-74
2022/02/12 07:03:31;;;;;;;;;8.25;8.00;;;;;5.46;60.43;102117.78;5054365;28;47236;-74
2022/02/12 07:05:56;;;;;;;;;8.25;8.00;;;;;5.47;60.50;102126.44;5054799;28;45573;-75
2022/02/12 07:08:21;;;;;;;;;18.50;13.00;;;;;5.39;60.69;102116.25;5054396;28;45859;-75
2022/02/12 07:10:47;;;;;;;;;8.00;8.00;;;;;5.41;60.76;102119.66;5054528;28;46380;-72
2022/02/12 07:13:13;;;;;;;;;8.75;8.75;;;;;5.40;60.55;102123.13;5054467;28;46024;-76
2022/02/12 07:15:39;;;;;;;;;11.75;8.00;;;;;5.39;60.69;102123.19;5054544;28;45942;-76
2022/02/12 07:18:04;;;;;;;;;14.00;12.00;;;;;5.29;60.49;102112.16;5054685;28;45449;-74
2022/02/12 07:20:30;;;;;;;;;16.25;12.25;;;;;5.34;60.59;102119.88;5054066;28;47660;-76
2022/02/12 07:22:55;;;;;;;;;12.50;11.00;;;;;5.32;60.63;102124.25;5054467;28;45443;-73
2022/02/12 07:25:21;;;;;;;;;10.50;8.00;;;;;5.30;60.50;102126.00;5053359;28;45536;-75
2022/02/12 07:31:11;;;;;;;;;14.75;12.00;;;;;5.27;60.73;102134.75;5053795;28;45693;-75
2022/02/12 07:33:37;;;;;;;;;14.00;9.75;;;;;5.23;60.72;102119.28;5053608;28;47031;-75
2022/02/12 07:36:04;;;;;;;;;16.25;15.00;;;;;5.27;60.81;102123.50;5054048;28;45609;-75
2022/02/12 07:38:29;;;;;;;;;14.00;12.50;;;;;5.27;61.17;102131.28;5054165;28;45788;-74
2022/02/12 07:40:55;;;;;;;;;16.00;12.00;;;;;5.24;61.08;102126.16;5053962;28;46589;-74
2022/02/12 07:43:20;;;;;;;;;16.00;15.75;;;;;5.24;60.73;102126.16;5053837;28;45727;-74
2022/02/12 07:45:45;;;;;;;;;12.50;11.75;;;;;5.27;61.08;102126.97;5053740;28;45606;-74
2022/02/12 07:48:11;;;;;;;;;40.25;38.25;;;;;5.28;60.66;102125.22;5054072;28;45581;-73
2022/02/12 07:50:36;;;;;;;;;16.00;13.50;;;;;5.28;61.19;102133.88;5053523;28;45623;-78
2022/02/12 07:53:02;;;;;;;;;16.00;14.25;;;;;5.29;60.99;102132.13;5035623;28;48186;-74
2022/02/12 07:55:30;;;;;;;;;11.25;9.00;;;;;5.30;61.18;102133.81;5053694;28;45632;-75
2022/02/12 08:01:17;;;;;;;;;8.00;7.75;;;;;5.28;60.83;102123.47;5053376;28;45654;-76
2022/02/12 08:03:42;;;;;;;;;18.25;15.00;;;;;5.29;61.27;102126.94;5053795;28;46515;-74
2022/02/12 08:07:27;;;;;;;;;91.50;69.00;;;;;5.32;60.99;102124.25;5053645;28;45760;-76
2022/02/12 08:08:53;;;;;;;;;43.25;34.25;;;;;5.37;60.43;102135.38;5040361;28;45506;-75
2022/02/12 08:11:26;;;;;;;;;30.75;27.00;;;;;5.39;60.80;102133.59;5038033;28;45800;-75
2022/02/12 08:13:52;;;;;;;;;25.75;22.00;;;;;5.39;61.06;102131.00;5054655;28;46213;-77
2022/02/12 08:16:19;;;;;;;;;11.50;10.75;;;;;5.39;60.96;102131.84;5054789;28;45916;-77
2022/02/12 08:18:44;;;;;;;;;30.00;23.25;;;;;5.40;61.08;102138.72;5053218;28;45614;-75
2022/02/12 08:21:10;;;;;;;;;27.50;22.75;;;;;5.41;60.58;102131.78;5053816;28;45502;-77
2022/02/12 08:23:36;;;;;;;;;34.75;29.50;;;;;5.42;61.12;102133.50;5053360;28;45656;-76
2022/02/12 08:26:01;;;;;;;;;27.50;23.75;;;;;5.33;61.14;102118.16;5053022;28;45683;-75
2022/02/12 08:28:27;;;;;;;;;15.00;12.25;;;;;5.39;60.98;102129.25;5034737;28;45637;-78
2022/02/12 08:30:54;;;;;;;;;26.00;22.00;;;;;5.40;60.98;102128.34;5053090;28;45458;-77
2022/02/12 08:33:20;;;;;;;;;25.50;22.75;;;;;5.40;60.82;102124.88;5052616;28;46135;-73
2022/02/12 08:35:47;;;;;;;;;15.25;13.25;;;;;5.40;60.58;102130.94;5052840;28;45564;-72
2022/02/12 08:38:12;;;;;;;;;21.75;19.00;;;;;5.39;60.64;102124.06;5053791;28;45605;-75
2022/02/12 08:40:39;;;;;;;;;27.00;23.75;;;;;5.41;60.80;102118.81;5056506;28;46603;-73
2022/02/12 08:46:27;;;;;;;;;13.50;11.75;;;;;5.43;60.50;102109.22;5056435;28;45519;-74
2022/02/12 08:48:52;;;;;;;;;17.50;15.25;;;;;5.45;61.03;102113.47;5056131;28;45517;-74
2022/02/12 08:51:18;;;;;;;;;27.50;22.75;;;;;5.52;60.80;102116.78;5055661;28;47699;-71
2022/02/12 08:53:45;;;;;;;;;23.00;20.50;;;;;5.47;60.93;102103.91;5038376;28;45846;-74
2022/02/12 08:56:10;;;;;;;;;17.00;16.25;;;;;5.57;60.41;102120.09;5055992;28;45579;-75
2022/02/12 09:01:57;;;;;;;;;15.50;14.50;;;;;5.62;60.59;102099.19;5055827;28;45612;-75
2022/02/12 09:04:23;;;;;;;;;15.00;14.25;;;;;5.61;60.47;102103.56;5055812;28;45624;-74
2022/02/12 09:06:52;;;;;;;;;37.50;29.50;;;;;5.64;60.17;102093.06;5037976;28;45803;-75
2022/02/12 09:09:18;;;;;;;;;44.75;33.50;;;;;5.65;60.21;102096.53;5056588;28;45590;-76
2022/02/12 09:11:48;;;;;;;;;22.00;19.00;;;;;5.69;60.22;102099.00;5057995;28;45941;-78
2022/02/12 09:14:13;;;;;;;;;25.75;19.50;;;;;5.66;60.29;102093.03;5057250;28;46111;-72
2022/02/12 09:16:41;;;;;;;;;37.50;32.75;;;;;5.76;60.65;102092.75;5056809;28;45682;-74
2022/02/12 09:19:10;;;;;;;;;19.75;17.25;;;;;5.75;60.39;102091.03;5038303;28;45504;-78
2022/02/12 09:21:38;;;;;;;;;11.00;10.00;;;;;5.70;60.23;102071.25;5056165;28;45757;-78
2022/02/12 09:24:05;;;;;;;;;15.75;13.25;;;;;5.81;59.88;102084.81;5054201;28;46050;-76
2022/02/12 09:26:30;;;;;;;;;27.50;22.25;;;;;5.88;59.94;102091.59;5055747;28;45624;-74
2022/02/12 09:32:20;;;;;;;;;13.50;13.25;;;;;5.94;60.17;102074.97;5055563;28;45781;-75
2022/02/12 09:34:46;;;;;;;;;19.00;14.00;;;;;5.96;59.83;102086.16;5038300;28;46017;-75
2022/02/12 09:37:12;;;;;;;;;12.25;12.00;;;;;5.97;59.78;102074.88;5056039;28;45653;-77
2022/02/12 09:39:37;;;;;;;;;13.50;12.50;;;;;5.92;59.70;102051.59;5056438;28;45513;-75
2022/02/12 09:42:03;;;;;;;;;12.75;10.50;;;;;6.00;59.78;102060.00;5055721;28;46540;-77
2022/02/12 09:44:48;;;;;;;;;13.00;10.75;;;;;6.00;59.95;102060.00;5053274;28;45861;-75
2022/02/12 09:47:23;;;;;;;;;13.00;12.00;;;;;6.05;59.38;102072.88;5053731;28;45706;-78
2022/02/12 09:50:00;;;;;;;;;13.50;12.75;;;;;6.07;59.41;102066.75;5052098;28;45544;-77
2022/02/12 09:52:31;;;;;;;;;11.25;11.25;;;;;6.08;58.88;102057.19;5052311;28;45883;-76
2022/02/12 09:54:57;;;;;;;;;14.75;12.50;;;;;6.10;59.35;102051.03;5035592;28;47194;-76
2022/02/12 09:57:25;;;;;;;;;16.25;13.00;;;;;6.09;59.40;102045.91;5035562;28;46062;-75
2022/02/12 10:00:04;;;;;;;;;14.25;12.75;;;;;6.04;59.24;102026.97;5034176;28;45595;-76
2022/02/12 10:02:32;;;;;;;;;14.25;13.50;;;;;6.16;59.13;102045.66;5052030;28;46501;-80
2022/02/12 10:05:18;;;;;;;;;15.75;13.00;;;;;6.26;58.88;102051.47;5052066;28;46269;-78
2022/02/12 10:08:15;;;;;;;;;16.00;13.50;;;;;5.82;59.17;101961.72;5052744;28;45849;-82
2022/02/12 10:10:45;;;;;;;;;14.50;12.75;;;;;6.40;59.11;102044.09;5052917;28;45691;-80
2022/02/12 10:13:26;;;;;;;;;12.25;12.25;;;;;6.43;58.64;102030.09;5051530;28;46916;-77
2022/02/12 10:15:57;;;;;;;;;12.00;8.25;;;;;6.52;58.53;102027.25;5044075;28;46163;-78
2022/02/12 10:18:47;;;;;;;;;11.00;9.75;;;;;6.35;58.36;101995.66;5053604;28;45911;-75
2022/02/12 10:21:15;;;;;;;;;16.75;15.25;;;;;6.63;58.39;102025.16;5035061;28;45603;-79
2022/02/12 10:23:44;;;;;;;;;16.50;14.50;;;;;6.68;58.40;102025.84;5053151;28;45798;-78
2022/02/12 10:26:12;;;;;;;;;13.00;10.00;;;;;6.72;58.10;102010.06;5035832;28;46281;-77
2022/02/12 10:28:45;;;;;;;;;21.75;16.00;;;;;6.74;58.25;102007.44;5053268;28;45793;-80
2022/02/12 10:31:12;;;;;;;;;13.00;13.00;;;;;6.82;57.99;102012.38;5053406;28;46038;-78
2022/02/12 10:33:45;;;;;;;;;24.25;19.75;;;;;6.85;57.65;102005.31;5036051;28;45769;-77
2022/02/12 10:36:17;;;;;;;;;20.75;17.50;;;;;6.89;57.72;101996.50;5053866;28;46200;-78
2022/02/12 10:38:52;;;;;;;;;20.75;15.50;;;;;6.93;57.52;101997.22;5036109;28;45939;-77
2022/02/12 10:41:21;;;;;;;;;14.75;12.00;;;;;6.95;57.72;101991.09;5037470;28;45545;-76
2022/02/12 10:43:49;;;;;;;;;18.50;14.00;;;;;7.01;57.14;101984.81;5054451;28;46446;-77
2022/02/12 10:46:16;;;;;;;;;16.50;15.00;;;;;7.06;56.89;101988.09;5036884;28;47099;-77
2022/02/12 10:48:43;;;;;;;;;10.75;9.75;;;;;7.11;57.07;101984.44;5054241;28;45859;-78
2022/02/12 10:51:17;;;;;;;;;12.50;11.25;;;;;7.11;57.04;101980.97;5010725;28;1215390;-77
2022/02/12 10:54:07;;;;;;;;;13.00;9.75;;;;;7.15;56.78;101975.59;5054751;28;45517;-75
2022/02/12 10:56:49;;;;;;;;;15.50;14.50;;;;;7.24;56.75;101987.44;5055649;28;46148;-78
2022/02/12 10:59:24;;;;;;;;;9.25;9.00;;;;;7.27;56.04;101989.97;5063459;28;45776;-77
2022/02/12 11:01:51;;;;;;;;;9.00;8.75;;;;;7.28;56.30;101988.22;5072013;28;45303;-76
2022/02/12 11:04:19;;;;;;;;;15.00;13.00;;;;;7.33;56.53;101979.31;5071328;28;45669;-78
2022/02/12 11:06:46;;;;;;;;;9.75;9.00;;;;;7.40;55.62;101986.00;5052986;28;45467;-77
2022/02/12 11:09:13;;;;;;;;;6.75;6.75;;;;;7.37;55.58;101969.63;5068657;28;45882;-77
2022/02/12 11:11:41;;;;;;;;;7.00;6.00;;;;;7.48;55.18;101976.16;5048854;28;45620;-77
2022/02/12 11:14:07;;;;;;;;;6.00;6.00;;;;;7.53;55.09;101969.03;5070011;28;47498;-76
2022/02/12 11:16:35;;;;;;;;;10.00;8.50;;;;;7.58;54.75;101961.88;5068890;28;46547;-77
2022/02/12 11:19:03;;;;;;;;;7.75;5.75;;;;;7.63;54.36;101961.72;5062023;28;45483;-77
2022/02/12 11:21:37;;;;;;;;;9.00;7.50;;;;;7.62;54.32;101946.97;5059618;28;45907;-76
2022/02/12 11:24:14;;;;;;;;;9.50;7.50;;;;;7.74;54.12;101951.72;5055345;28;46688;-79
2022/02/12 11:26:45;;;;;;;;;9.50;7.00;;;;;7.79;54.23;101944.56;5053806;28;46072;-79
2022/02/12 11:29:33;;;;;;;;;10.00;9.00;;;;;7.81;54.25;101921.03;5053196;28;45475;-77
2022/02/12 11:32:28;;;;;;;;;14.00;11.00;;;;;7.91;54.04;101936.28;5054578;28;45561;-75
2022/02/12 11:35:09;;;;;;;;;13.50;12.50;;;;;7.96;54.06;101923.91;4936456;28;47549;-76
2022/02/12 11:37:41;;;;;;;;;5.25;5.25;;;;;8.01;53.89;101926.31;4952778;28;46198;-77
2022/02/12 11:40:22;;;;;;;;;17.00;16.25;;;;;8.07;53.71;101922.63;4952518;28;45702;-77
2022/02/12 11:42:59;;;;;;;;;14.50;12.00;;;;;8.11;53.30;101914.63;4953112;28;45662;-78
2022/02/12 11:45:34;;;;;;;;;11.00;9.00;;;;;8.15;53.57;101916.19;4952573;28;46248;-78
2022/02/12 11:48:13;;;;;;;;;9.00;9.00;;;;;8.22;53.29;101899.38;4953178;28;47191;-78
2022/02/12 11:51:00;;;;;;;;;9.50;8.25;;;;;8.22;53.42;101895.91;4952026;28;45829;-78
2022/02/12 11:53:35;;;;;;;;;17.25;12.75;;;;;8.30;53.06;101899.97;4952347;28;46038;-77
2022/02/12 11:56:22;;;;;;;;;54.75;40.50;;;;;8.33;53.20;101896.34;4952719;28;46668;-78
2022/02/12 12:02:51;;;;;;;;;6.50;5.00;;;;;8.46;51.98;101881.03;4953004;28;45613;-79
2022/02/12 12:05:24;;;;;;;;;8.50;6.00;;;;;8.49;51.66;101873.06;4953468;28;45788;-77
2022/02/12 12:08:11;;;;;;;;;8.50;7.50;;;;;8.51;51.55;101869.50;4953145;28;45629;-79
2022/02/12 12:10:59;;;;;;;;;9.75;9.25;;;;;8.56;51.94;101857.09;4972881;28;46288;-77
2022/02/12 12:13:27;;;;;;;;;11.25;10.50;;;;;8.60;52.03;101848.19;5056133;28;45621;-78
2022/02/12 12:19:17;;;;;;;;;9.50;7.00;;;;;8.69;51.47;101842.56;5056931;28;46157;-77
2022/02/12 12:21:42;;;;;;;;;10.50;8.25;;;;;8.75;51.85;101828.38;5057394;28;46128;-76
2022/02/12 12:24:11;;;;;;;;;11.25;7.50;;;;;8.80;51.74;101826.41;5057354;28;45664;-78
2022/02/12 12:26:41;;;;;;;;;10.25;8.25;;;;;8.84;51.62;101826.25;5057303;28;45572;-77
2022/02/12 12:32:00;;;;;;;;;8.75;8.00;;;;;8.87;51.21;101806.94;5041179;28;45531;-78
2022/02/12 12:34:26;;;;;;;;;8.50;7.00;;;;;8.94;50.92;101807.53;5056654;28;45907;-79
2022/02/12 12:36:57;;;;;;;;;8.50;7.00;;;;;8.97;50.96;101803.00;5055645;28;45553;-80
2022/02/12 12:39:38;;;;;;;;;9.25;8.00;;;;;9.02;50.97;101801.03;5056159;28;46927;-79
2022/02/12 12:42:20;;;;;;;;;7.25;7.00;;;;;9.06;49.98;101799.13;5056153;28;46492;-80